Time;durP1;ratioP1;P1;durP2;ratioP2;P2;SDS_P1;SDS_P2;PMS_P1;PMS_P2;Temp;Humidity;BMP_temperature;BMP_pressure;BME280_temperature;BME280_humidity;BME280_pressure;Samples;Min_cycle;Max_cycle;Signal;HPM_P1;HPM_P2
2022/05/27 00:03:21;;;;;;;1.13;0.97;;;;;;;13.63;61.15;96738.72;10376974;28;99198;-68
2022/05/27 00:08:25;;;;;;;3.15;0.90;;;;;;;13.58;60.68;96732.31;10362608;28;96803;-68
2022/05/27 00:13:30;;;;;;;3.70;1.20;;;;;;;13.56;60.96;96737.69;10379309;28;96812;-68
2022/05/27 00:18:33;;;;;;;1.75;0.65;;;;;;;13.41;61.22;96737.47;10377553;28;97048;-68
2022/05/27 00:23:38;;;;;;;1.10;0.80;;;;;;;13.39;61.57;96738.56;10380085;28;96896;-68
2022/05/27 00:28:42;;;;;;;1.15;0.80;;;;;;;13.24;62.08;96728.63;10359114;28;100185;-68
2022/05/27 00:33:45;;;;;;;1.33;0.70;;;;;;;13.20;61.68;96734.31;10381939;28;96915;-68
2022/05/27 00:38:48;;;;;;;2.60;0.95;;;;;;;13.12;62.09;96737.72;10389074;28;97194;-68
2022/05/27 00:43:52;;;;;;;2.78;0.85;;;;;;;12.94;63.35;96740.31;10376942;28;98145;-68
2022/05/27 00:49:09;;;;;;;2.40;1.10;;;;;;;12.84;63.45;96732.53;10380953;28;97956;-68
2022/05/27 00:54:15;;;;;;;1.63;0.93;;;;;;;12.79;64.03;96732.16;10375990;28;97097;-68
2022/05/27 00:59:22;;;;;;;3.75;0.95;;;;;;;12.65;64.55;96730.06;10375799;28;96843;-68
2022/05/27 01:04:28;;;;;;;2.05;1.00;;;;;;;12.53;64.94;96728.59;10375622;28;96772;-68
2022/05/27 01:09:31;;;;;;;1.35;0.90;;;;;;;12.49;65.09;96736.75;10369559;28;97985;-68
2022/05/27 01:14:53;;;;;;;3.13;1.13;;;;;;;12.45;65.14;96729.34;10360127;28;99096;-68
2022/05/27 01:20:22;;;;;;;1.63;1.00;;;;;;;12.38;65.13;96733.53;10373178;28;97838;-68
2022/05/27 01:25:54;;;;;;;2.05;0.80;;;;;;;12.35;64.84;96734.63;10362790;28;97152;-68
2022/05/27 01:31:04;;;;;;;2.95;0.80;;;;;;;12.35;64.32;96739.88;10373588;28;98709;-68
2022/05/27 01:36:18;;;;;;;2.17;1.10;;;;;;;12.25;64.88;96742.56;10359599;28;96872;-68
2022/05/27 01:41:28;;;;;;;1.88;0.80;;;;;;;12.01;66.07;96742.25;10368300;28;100426;-68
2022/05/27 01:46:36;;;;;;;1.33;0.70;;;;;;;11.72;67.03;96744.00;10373787;28;98260;-68
2022/05/27 01:51:44;;;;;;;1.33;0.90;;;;;;;11.68;67.01;96734.78;10372668;28;96946;-68
2022/05/27 01:56:50;;;;;;;1.15;0.85;;;;;;;11.67;66.99;96733.13;10358153;28;96785;-68
2022/05/27 02:02:00;;;;;;;1.17;0.70;;;;;;;11.65;67.26;96732.44;10367944;28;100449;-67
2022/05/27 02:07:06;;;;;;;2.15;0.88;;;;;;;11.78;67.20;96736.53;10368598;28;96990;-68
2022/05/27 02:12:14;;;;;;;2.88;0.82;;;;;;;11.79;67.20;96725.09;10356489;28;96741;-68
2022/05/27 02:17:23;;;;;;;1.92;0.90;;;;;;;11.78;66.85;96724.28;10363086;28;97838;-68
2022/05/27 02:22:31;;;;;;;1.05;0.80;;;;;;;11.77;66.77;96727.88;10365798;28;96893;-67
2022/05/27 02:27:37;;;;;;;2.15;1.10;;;;;;;11.71;67.03;96721.41;10361277;28;97776;-68
2022/05/27 02:32:45;;;;;;;1.48;0.73;;;;;;;11.71;66.80;96720.56;10365691;28;98026;-68
2022/05/27 02:37:51;;;;;;;2.80;1.10;;;;;;;11.71;67.68;96726.66;10372951;28;97973;-68
2022/05/27 02:43:09;;;;;;;1.70;1.00;;;;;;;11.62;67.83;96717.03;10369831;28;100597;-68
2022/05/27 02:48:24;;;;;;;1.38;0.80;;;;;;;11.61;66.97;96714.56;10372825;28;96852;-68
2022/05/27 02:53:35;;;;;;;2.77;1.10;;;;;;;11.61;67.69;96723.25;10370220;28;98324;-68
2022/05/27 02:58:38;;;;;;;2.53;1.00;;;;;;;11.48;68.38;96725.31;10381472;28;96943;-68
2022/05/27 03:03:42;;;;;;;1.33;0.85;;;;;;;11.31;68.58;96713.75;10373544;28;97573;-68
2022/05/27 03:08:57;;;;;;;2.73;0.70;;;;;;;11.31;68.17;96712.03;10364360;28;96992;-68
2022/05/27 03:14:19;;;;;;;2.27;0.90;;;;;;;11.26;67.38;96711.59;10365133;28;96896;-68
2022/05/27 03:19:43;;;;;;;1.63;0.82;;;;;;;11.26;68.26;96721.19;10362384;28;96905;-68
2022/05/27 03:24:56;;;;;;;1.17;0.90;;;;;;;11.15;68.41;96735.25;10369743;28;97024;-68
2022/05/27 03:30:05;;;;;;;1.10;1.00;;;;;;;10.94;69.85;96738.84;10358566;28;97065;-68
2022/05/27 03:35:16;;;;;;;1.48;1.00;;;;;;;10.94;69.55;96724.94;10370656;28;96912;-68
2022/05/27 03:40:24;;;;;;;2.65;1.00;;;;;;;11.01;69.50;96735.69;10365656;28;100227;-68
2022/05/27 03:45:27;;;;;;;2.15;1.20;;;;;;;11.06;69.39;96741.31;10360347;28;97516;-68
2022/05/27 03:50:32;;;;;;;1.98;1.00;;;;;;;10.98;70.39;96742.84;10365852;28;96743;-68
2022/05/27 03:55:34;;;;;;;1.40;0.90;;;;;;;10.84;70.74;96743.25;10350456;28;97251;-68
2022/05/27 04:00:38;;;;;;;1.42;0.95;;;;;;;10.85;69.94;96744.09;10373134;28;97104;-67
2022/05/27 04:05:42;;;;;;;1.75;1.10;;;;;;;10.92;70.05;96751.22;10371045;28;97035;-67
2022/05/27 04:10:45;;;;;;;3.00;1.20;;;;;;;10.94;69.95;96746.69;10359514;28;97881;-68
2022/05/27 04:15:48;;;;;;;1.77;1.00;;;;;;;10.92;69.22;96746.00;10377208;28;98394;-68
2022/05/27 04:20:52;;;;;;;3.67;1.45;;;;;;;10.94;69.90;96759.75;10376473;28;97645;-68
2022/05/27 04:25:54;;;;;;;1.87;1.03;;;;;;;10.87;70.17;96753.44;10366351;28;100265;-68
2022/05/27 04:30:58;;;;;;;2.63;1.02;;;;;;;10.83;69.76;96752.06;10359172;28;96953;-68
2022/05/27 04:36:02;;;;;;;1.75;0.95;;;;;;;10.85;70.12;96760.59;10372701;28;101073;-68
2022/05/27 04:41:05;;;;;;;3.10;1.27;;;;;;;10.93;69.99;96760.72;10365682;28;96771;-67
2022/05/27 04:46:08;;;;;;;2.78;1.10;;;;;;;11.02;70.33;96761.69;10373458;28;98468;-67
2022/05/27 04:51:12;;;;;;;2.25;1.30;;;;;;;10.97;70.94;96754.25;10374580;28;97117;-68
2022/05/27 04:56:15;;;;;;;2.50;0.93;;;;;;;10.99;71.32;96757.56;10372501;28;98550;-68
2022/05/27 05:01:18;;;;;;;2.53;1.00;;;;;;;11.21;70.46;96754.78;10368574;28;98379;-68
2022/05/27 05:06:22;;;;;;;1.33;0.80;;;;;;;11.41;69.90;96761.69;10372070;28;101074;-68
2022/05/27 05:11:25;;;;;;;1.83;0.93;;;;;;;11.58;69.86;96757.53;10376731;28;97192;-68
2022/05/27 05:16:28;;;;;;;2.25;0.90;;;;;;;11.74;69.67;96757.78;10375905;28;97955;-68
2022/05/27 05:21:32;;;;;;;1.88;1.00;;;;;;;11.88;69.32;96753.03;10376921;28;96819;-68
2022/05/27 05:26:35;;;;;;;1.60;1.10;;;;;;;12.10;68.99;96757.91;10375469;28;96892;-68
2022/05/27 05:31:38;;;;;;;1.83;1.20;;;;;;;12.29;68.53;96756.19;10373655;28;96872;-68
2022/05/27 05:36:42;;;;;;;4.53;1.20;;;;;;;12.46;68.20;96758.00;10368500;28;97000;-68
2022/05/27 05:41:56;;;;;;;1.37;1.20;;;;;;;12.63;68.51;96768.66;10370988;28;96742;-64
2022/05/27 05:46:59;;;;;;;4.05;1.20;;;;;;;12.77;68.13;96776.03;10368173;28;97888;-65
2022/05/27 05:52:04;;;;;;;2.05;1.30;;;;;;;12.92;67.95;96772.94;10380180;28;97728;-64
2022/05/27 05:57:07;;;;;;;;;;;;;;;13.02;67.41;96769.25;10373585;28;97188;-64
2022/05/27 06:02:10;;;;;;;2.38;1.45;;;;;;;13.12;67.93;96761.31;10371332;28;96864;-64
2022/05/27 06:07:15;;;;;;;4.30;1.35;;;;;;;13.28;67.66;96772.94;10374708;28;96835;-65
2022/05/27 06:12:22;;;;;;;2.13;1.42;;;;;;;13.42;67.39;96775.00;10374073;28;98524;-65
2022/05/27 06:17:25;;;;;;;3.30;1.73;;;;;;;13.59;67.19;96768.09;10366059;27;96768;-64
2022/05/27 06:22:29;;;;;;;2.00;1.50;;;;;;;13.75;66.95;96764.75;10370057;28;96801;-65
2022/05/27 06:27:33;;;;;;;3.38;1.50;;;;;;;13.98;66.68;96757.16;10367600;28;97530;-65
2022/05/27 06:37:58;;;;;;;1.70;1.30;;;;;;;14.30;65.88;96764.38;10381639;28;96954;-65
2022/05/27 06:43:00;;;;;;;2.13;1.50;;;;;;;14.47;65.47;96767.06;10376192;27;96926;-64
2022/05/27 06:48:06;;;;;;;2.17;1.02;;;;;;;14.62;65.20;96765.50;10373286;28;96913;-64
2022/05/27 06:53:10;;;;;;;2.55;1.20;;;;;;;14.70;65.38;96755.00;10382112;28;101334;-65
2022/05/27 06:58:13;;;;;;;3.13;1.10;;;;;;;14.86;65.02;96761.28;10382836;27;97689;-65
2022/05/27 07:03:16;;;;;;;1.77;1.05;;;;;;;15.00;64.13;96770.34;10375921;28;97912;-65
2022/05/27 07:08:20;;;;;;;1.73;1.30;;;;;;;15.11;63.92;96772.66;10379220;28;98320;-65
2022/05/27 07:13:23;;;;;;;2.08;1.17;;;;;;;15.22;63.69;96782.88;10380683;28;98422;-65
2022/05/27 07:18:26;;;;;;;2.42;1.40;;;;;;;15.36;63.26;96781.41;10372546;28;98026;-65
2022/05/27 07:23:33;;;;;;;2.30;1.20;;;;;;;15.46;62.91;96776.78;10377586;28;97869;-65
2022/05/27 07:28:36;;;;;;;3.13;1.13;;;;;;;15.59;61.76;96767.59;10374666;28;98778;-65
2022/05/27 07:33:40;;;;;;;2.03;1.23;;;;;;;15.58;61.86;96753.63;10374542;27;103277;-65
2022/05/27 07:38:44;;;;;;;1.80;1.10;;;;;;;15.59;60.92;96751.78;10362014;27;96919;-65
2022/05/27 07:43:47;;;;;;;1.83;0.90;;;;;;;15.80;60.71;96746.81;10365793;28;97115;-65
2022/05/27 07:48:50;;;;;;;1.85;1.20;;;;;;;16.03;60.70;96748.72;10377728;28;99251;-65
2022/05/27 07:54:14;;;;;;;1.50;0.90;;;;;;;16.16;60.10;96740.31;10372467;28;96967;-65
2022/05/27 07:59:17;;;;;;;1.23;0.75;;;;;;;16.38;60.31;96736.06;10375102;28;97232;-68
2022/05/27 08:04:20;;;;;;;1.45;0.90;;;;;;;16.57;58.93;96740.94;10377326;27;96982;-68
2022/05/27 08:09:25;;;;;;;1.88;0.73;;;;;;;16.71;58.49;96738.53;10355910;28;97210;-68
2022/05/27 08:14:28;;;;;;;;;;;;;;;16.78;59.14;96750.09;10384722;28;97033;-68
2022/05/27 08:19:30;;;;;;;2.70;1.00;;;;;;;16.84;58.76;96733.56;10368555;27;99321;-68
2022/05/27 08:24:35;;;;;;;1.65;1.17;;;;;;;16.96;58.25;96732.16;10384440;28;98037;-68
2022/05/27 08:29:45;;;;;;;1.77;1.10;;;;;;;16.99;58.20;96729.16;10387151;27;96814;-68
2022/05/27 08:40:25;;;;;;;1.52;0.93;;;;;;;17.29;57.31;96713.41;10369347;28;97132;-68
2022/05/27 08:45:33;;;;;;;1.92;1.00;;;;;;;17.46;57.18;96722.03;10387554;28;96821;-68
2022/05/27 08:50:40;;;;;;;2.55;1.15;;;;;;;17.66;57.16;96714.38;10381385;28;96974;-68
2022/05/27 09:01:11;;;;;;;1.10;0.85;;;;;;;17.75;56.36;96710.69;10383933;28;97359;-68
2022/05/27 09:06:18;;;;;;;1.20;1.10;;;;;;;17.83;56.62;96717.69;10380516;28;97547;-68
2022/05/27 09:11:36;;;;;;;2.08;1.08;;;;;;;17.93;56.19;96706.88;10384840;27;97113;-68
2022/05/27 09:16:47;;;;;;;1.60;1.15;;;;;;;18.01;56.30;96693.59;10382952;27;96947;-68
2022/05/27 09:22:18;;;;;;;2.40;1.00;;;;;;;18.13;55.45;96700.03;10383777;28;97245;-68
2022/05/27 09:27:29;;;;;;;4.07;1.20;;;;;;;18.26;55.36;96696.72;10374025;28;98074;-68
2022/05/27 09:32:47;;;;;;;3.92;1.38;;;;;;;18.42;55.24;96693.06;10377423;27;98105;-68
2022/05/27 09:37:54;;;;;;;2.10;1.10;;;;;;;18.65;55.45;96694.72;10363921;28;97900;-68
2022/05/27 09:43:03;;;;;;;3.10;1.13;;;;;;;18.83;54.48;96694.31;10374181;28;96909;-68
2022/05/27 09:48:06;;;;;;;2.17;1.23;;;;;;;18.80;55.04;96684.09;10358010;28;99107;-68
2022/05/27 09:53:16;;;;;;;3.63;1.20;;;;;;;19.02;54.15;96684.97;10362647;28;97480;-68
2022/05/27 09:58:26;;;;;;;2.05;1.25;;;;;;;19.30;53.85;96671.75;10374916;28;96874;-68
2022/05/27 10:03:33;;;;;;;4.13;1.30;;;;;;;19.22;53.46;96664.75;10368944;28;97010;-68
2022/05/27 10:08:43;;;;;;;2.30;1.10;;;;;;;19.12;52.68;96658.94;10363446;28;97063;-68
2022/05/27 10:13:49;;;;;;;3.03;0.90;;;;;;;19.18;52.72;96647.59;10365349;28;98598;-68
2022/05/27 10:19:08;;;;;;;2.58;0.90;;;;;;;19.41;51.92;96651.84;10369977;28;97301;-68
2022/05/27 10:24:17;;;;;;;2.72;1.05;;;;;;;19.58;51.93;96641.78;10369532;28;96892;-69
2022/05/27 10:29:21;;;;;;;1.60;0.80;;;;;;;19.71;51.46;96641.03;10369008;28;102612;-69
2022/05/27 10:34:42;;;;;;;1.92;1.02;;;;;;;19.84;52.43;96627.88;10373216;28;97629;-70
2022/05/27 10:39:53;;;;;;;1.38;0.80;;;;;;;20.14;51.11;96619.63;10370999;28;97229;-70
2022/05/27 10:45:08;;;;;;;0.93;0.60;;;;;;;20.44;49.05;96621.97;10369575;28;97656;-69
2022/05/27 10:50:19;;;;;;;1.92;0.70;;;;;;;20.50;47.36;96629.94;10371831;28;98053;-70
2022/05/27 10:55:31;;;;;;;4.40;0.60;;;;;;;20.41;48.18;96603.78;10377292;28;97904;-70
2022/05/27 11:06:44;;;;;;;2.65;0.90;;;;;;;21.07;47.26;96603.88;10360684;28;97383;-70
2022/05/27 11:11:56;;;;;;;1.85;0.93;;;;;;;21.22;47.98;96605.50;10368471;28;96761;-70
2022/05/27 11:17:15;;;;;;;1.45;0.82;;;;;;;21.26;47.90;96596.13;10375017;28;97787;-70
2022/05/27 11:22:28;;;;;;;1.42;0.80;;;;;;;21.35;47.75;96586.09;10372442;28;96920;-69
2022/05/27 11:27:45;;;;;;;2.85;1.00;;;;;;;21.60;47.32;96584.38;10378198;28;96772;-70
2022/05/27 11:33:12;;;;;;;1.17;0.77;;;;;;;21.87;46.72;96577.16;10375467;28;97059;-70
2022/05/27 11:38:36;;;;;;;1.88;0.73;;;;;;;21.91;46.72;96566.09;10381312;28;96879;-69
2022/05/27 11:43:47;;;;;;;1.08;0.80;;;;;;;21.86;46.63;96550.78;10368986;28;98069;-70
2022/05/27 11:49:08;;;;;;;1.88;0.90;;;;;;;22.17;46.78;96547.34;10379987;28;96821;-70
2022/05/27 11:54:29;;;;;;;0.93;0.70;;;;;;;22.39;46.29;96537.19;10375249;28;97037;-69
2022/05/27 11:59:36;;;;;;;1.63;0.77;;;;;;;22.46;45.89;96537.16;10385711;28;97039;-70
2022/05/27 12:04:53;;;;;;;2.10;0.80;;;;;;;22.64;45.79;96533.75;10364415;28;97387;-70
2022/05/27 12:10:16;;;;;;;1.42;0.90;;;;;;;22.72;45.90;96530.81;10378887;28;97897;-70
2022/05/27 12:15:24;;;;;;;0.82;0.80;;;;;;;22.85;44.91;96516.56;10389711;28;96981;-70
2022/05/27 12:20:32;;;;;;;3.47;0.95;;;;;;;23.00;45.47;96517.03;10381132;28;96883;-70
2022/05/27 12:25:39;;;;;;;1.85;0.70;;;;;;;23.23;44.88;96507.59;10363740;28;96880;-70
2022/05/27 12:30:43;;;;;;;2.90;0.90;;;;;;;23.37;44.87;96513.63;10384032;28;97043;-70
2022/05/27 12:35:53;;;;;;;1.60;0.80;;;;;;;23.46;44.29;96508.81;10378091;28;96884;-70
2022/05/27 12:41:01;;;;;;;1.25;0.70;;;;;;;23.60;44.27;96504.13;10366511;28;98094;-70
2022/05/27 12:46:28;;;;;;;1.45;0.70;;;;;;;23.90;42.98;96493.50;10346778;28;98819;-70
2022/05/27 12:51:39;;;;;;;0.90;0.70;;;;;;;24.30;42.10;96496.44;10383004;28;98621;-70
2022/05/27 13:02:42;;;;;;;1.23;0.90;;;;;;;24.38;41.32;96478.47;10378011;28;96980;-71
2022/05/27 13:07:52;;;;;;;1.77;0.73;;;;;;;24.72;41.30;96481.44;10369175;28;96832;-70
2022/05/27 13:13:02;;;;;;;1.98;0.93;;;;;;;24.76;40.99;96464.69;10375095;28;96784;-70
2022/05/27 13:18:13;;;;;;;1.23;0.60;;;;;;;24.81;40.95;96456.81;10376408;28;96951;-70
2022/05/27 13:23:19;;;;;;;1.63;0.63;;;;;;;24.97;41.65;96447.28;10393413;28;96914;-71
2022/05/27 13:28:28;;;;;;;4.40;1.00;;;;;;;25.29;40.77;96440.75;10368419;28;97244;-70
2022/05/27 13:33:38;;;;;;;;;;;;;;;25.23;41.45;96437.97;10375451;28;96992;-70
2022/05/27 13:38:43;;;;;;;2.10;0.77;;;;;;;25.34;40.97;96432.78;10352478;28;99313;-70
2022/05/27 13:43:51;;;;;;;1.52;0.63;;;;;;;25.57;40.05;96424.75;10379629;28;96801;-70
2022/05/27 13:48:58;;;;;;;0.73;0.50;;;;;;;25.71;39.71;96427.13;10391612;28;96848;-70
2022/05/27 13:54:14;;;;;;;1.65;0.80;;;;;;;26.10;39.29;96413.88;10356912;28;97237;-71
2022/05/27 13:59:27;;;;;;;1.33;0.40;;;;;;;26.10;37.83;96408.53;10349711;28;97176;-71
2022/05/27 14:04:34;;;;;;;1.50;0.47;;;;;;;25.16;37.79;96410.53;10359574;28;96888;-70
2022/05/27 14:09:47;;;;;;;3.30;0.65;;;;;;;25.31;37.56;96407.34;10374798;28;96913;-71
2022/05/27 14:14:53;;;;;;;2.10;0.57;;;;;;;26.85;35.55;96395.75;10377534;28;96970;-72
2022/05/27 14:20:00;;;;;;;0.98;0.47;;;;;;;27.73;34.88;96398.47;10390180;28;102422;-70
2022/05/27 14:25:07;;;;;;;1.58;0.45;;;;;;;28.21;34.62;96391.38;10363704;28;97275;-72
2022/05/27 14:30:14;;;;;;;1.83;0.50;;;;;;;28.74;33.56;96396.06;10351456;28;98060;-72
2022/05/27 14:35:24;;;;;;;0.43;0.30;;;;;;;29.30;32.69;96390.19;10357062;28;97004;-72
2022/05/27 14:40:37;;;;;;;0.88;0.50;;;;;;;29.73;32.11;96380.09;10365454;28;98534;-71
2022/05/27 14:45:43;;;;;;;0.73;0.40;;;;;;;29.70;30.59;96380.66;10368734;28;98272;-71
2022/05/27 14:50:46;;;;;;;1.20;0.35;;;;;;;30.19;30.73;96373.97;10364360;28;98376;-71
2022/05/27 14:55:59;;;;;;;4.75;0.50;;;;;;;30.09;29.59;96370.16;10375711;28;96769;-71
2022/05/27 15:01:03;;;;;;;0.75;0.38;;;;;;;29.55;30.87;96370.66;10365108;28;98004;-70
2022/05/27 15:06:16;;;;;;;1.25;0.47;;;;;;;30.05;31.14;96369.09;10381784;28;96828;-71
2022/05/27 15:11:25;;;;;;;0.95;0.50;;;;;;;30.44;29.94;96365.06;10373049;28;98580;-70
2022/05/27 15:16:34;;;;;;;0.40;0.30;;;;;;;30.46;30.23;96360.19;10374240;28;99131;-70
2022/05/27 15:21:41;;;;;;;1.63;0.43;;;;;;;30.73;30.09;96349.09;10368992;28;100418;-70
2022/05/27 15:37:35;;;;;;;0.93;0.45;;;;;;;31.52;27.84;96332.34;10372746;28;97875;-70
2022/05/27 15:42:48;;;;;;;1.98;0.50;;;;;;;31.58;28.29;96334.72;10370530;28;98344;-71
2022/05/27 15:47:51;;;;;;;0.80;0.50;;;;;;;31.67;28.96;96334.13;10368845;28;99571;-71
2022/05/27 15:52:54;;;;;;;0.65;0.47;;;;;;;31.86;28.84;96326.97;10369833;28;98435;-71
2022/05/27 15:57:58;;;;;;;1.10;0.60;;;;;;;32.42;27.90;96327.59;10371353;28;98687;-71
2022/05/27 16:03:01;;;;;;;1.05;0.43;;;;;;;32.41;27.53;96326.00;10368362;28;97081;-71
2022/05/27 16:08:05;;;;;;;0.98;0.40;;;;;;;32.70;26.84;96318.69;10360214;28;97985;-71
2022/05/27 16:13:10;;;;;;;0.60;0.40;;;;;;;32.26;27.10;96314.22;10378746;28;97954;-71
2022/05/27 16:18:15;;;;;;;0.45;0.32;;;;;;;32.21;27.82;96310.78;10382929;28;97194;-71
2022/05/27 16:23:18;;;;;;;1.17;0.60;;;;;;;32.02;26.99;96302.56;10372693;28;96909;-71
2022/05/27 16:28:22;;;;;;;0.98;0.50;;;;;;;31.21;27.74;96300.91;10380587;28;96887;-71
2022/05/27 16:33:26;;;;;;;0.77;0.40;;;;;;;31.36;28.25;96301.94;10365326;28;96951;-71
2022/05/27 16:38:31;;;;;;;0.65;0.40;;;;;;;30.97;28.91;96299.97;10363409;28;98510;-71
2022/05/27 16:43:35;;;;;;;1.27;0.60;;;;;;;30.54;29.51;96296.84;10375486;28;96753;-71
2022/05/27 16:48:38;;;;;;;1.05;0.47;;;;;;;30.86;29.34;96301.91;10373618;28;98705;-71
2022/05/27 16:53:44;;;;;;;1.88;0.50;;;;;;;30.98;29.07;96304.25;10368847;28;98449;-71
2022/05/27 16:58:48;;;;;;;0.85;0.50;;;;;;;31.28;28.67;96289.00;10369549;28;96897;-71
2022/05/27 17:03:51;;;;;;;1.00;0.60;;;;;;;31.45;28.43;96294.88;10374572;28;100107;-71
2022/05/27 17:08:54;;;;;;;1.58;0.50;;;;;;;31.48;28.31;96299.69;10364008;28;97593;-71
2022/05/27 17:13:58;;;;;;;2.22;0.50;;;;;;;31.50;27.86;96297.53;10371908;28;98125;-71
2022/05/27 17:19:01;;;;;;;0.93;0.43;;;;;;;30.66;28.82;96294.66;10374560;28;97975;-71
2022/05/27 17:24:05;;;;;;;4.05;0.70;;;;;;;30.50;28.87;96285.00;10357880;28;100675;-70
2022/05/27 17:29:09;;;;;;;1.20;0.50;;;;;;;30.07;29.27;96290.72;10369139;28;96947;-70
2022/05/27 17:34:13;;;;;;;1.42;0.77;;;;;;;30.75;28.70;96295.69;10374869;28;97131;-70
2022/05/27 17:39:18;;;;;;;1.50;0.55;;;;;;;30.76;28.83;96293.84;10376023;28;98159;-70
2022/05/27 17:44:23;;;;;;;1.40;0.73;;;;;;;30.28;29.22;96286.13;10372091;28;98164;-70
2022/05/27 17:54:46;;;;;;;2.80;0.60;;;;;;;29.44;29.61;96290.94;10371927;28;96757;-70
2022/05/27 17:59:51;;;;;;;1.25;0.60;;;;;;;29.10;30.12;96291.41;10370090;28;96837;-70
2022/05/27 18:04:54;;;;;;;2.33;1.20;;;;;;;28.03;31.14;96300.50;10385829;28;97079;-71
2022/05/27 18:09:57;;;;;;;1.17;0.68;;;;;;;26.84;32.48;96300.34;10376976;28;96905;-67
2022/05/27 18:15:03;;;;;;;0.82;0.63;;;;;;;25.64;34.17;96304.22;10376152;28;96952;-69
2022/05/27 18:20:08;;;;;;;0.93;0.70;;;;;;;24.78;35.29;96296.97;10375576;28;96948;-70
2022/05/27 18:25:13;;;;;;;3.45;0.80;;;;;;;24.12;35.76;96299.84;10370572;27;97281;-66
2022/05/27 18:30:19;;;;;;;2.70;0.80;;;;;;;23.72;36.60;96300.47;10378474;28;96876;-70
2022/05/27 18:35:26;;;;;;;2.45;0.88;;;;;;;23.14;37.80;96298.41;10388014;28;96990;-69
2022/05/27 18:40:29;;;;;;;1.17;0.68;;;;;;;22.74;38.40;96298.91;10371545;28;96878;-69
2022/05/27 18:45:33;;;;;;;2.03;0.60;;;;;;;22.55;38.61;96295.44;10381451;28;96867;-70
2022/05/27 18:50:38;;;;;;;5.70;3.08;;;;;;;22.31;39.07;96297.91;10387397;28;96884;-69
2022/05/27 18:55:41;;;;;;;3.40;1.20;;;;;;;22.31;39.21;96299.78;10370181;28;96895;-69
2022/05/27 19:00:47;;;;;;;0.80;0.63;;;;;;;22.10;39.61;96301.00;10376954;28;96954;-68
2022/05/27 19:05:51;;;;;;;1.30;0.73;;;;;;;21.99;39.87;96303.34;10375418;28;99214;-84
2022/05/27 19:10:54;;;;;;;1.30;0.80;;;;;;;21.85;40.04;96307.97;10372706;28;98053;-76
2022/05/27 19:15:59;;;;;;;1.90;0.82;;;;;;;21.81;40.15;96311.25;10374962;28;97072;-77
2022/05/27 19:21:21;;;;;;;4.95;1.15;;;;;;;21.63;40.40;96314.69;10375514;28;98751;-88
2022/05/27 19:26:26;;;;;;;2.45;0.95;;;;;;;21.46;41.16;96312.50;10364431;28;100235;-71
2022/05/27 19:31:30;;;;;;;3.20;2.30;;;;;;;21.35;41.05;96318.50;10381445;28;96842;-72
2022/05/27 19:36:34;;;;;;;2.42;1.13;;;;;;;21.24;41.22;96325.31;10373846;28;97495;-71
2022/05/27 19:41:37;;;;;;;1.73;1.05;;;;;;;21.10;41.52;96335.19;10363328;28;96902;-72
2022/05/27 19:46:41;;;;;;;2.58;1.00;;;;;;;20.84;42.10;96338.78;10370951;28;98041;-71
2022/05/27 19:51:46;;;;;;;;;;;;;;;20.74;41.99;96339.22;10376160;28;97415;-72
2022/05/27 19:56:48;;;;;;;1.70;1.40;;;;;;;20.63;42.37;96346.97;10391107;27;99631;-71
2022/05/27 20:07:16;;;;;;;1.98;1.20;;;;;;;20.32;42.67;96362.56;10389822;28;98668;-72
2022/05/27 20:12:21;;;;;;;3.22;2.30;;;;;;;20.17;43.47;96375.22;10375887;27;96984;-71
2022/05/27 20:17:26;;;;;;;2.10;1.20;;;;;;;20.02;44.17;96374.59;10376497;28;96932;-71
2022/05/27 20:22:29;;;;;;;3.55;2.10;;;;;;;19.77;45.27;96375.97;10381246;28;98427;-72
2022/05/27 20:27:32;;;;;;;1.92;1.10;;;;;;;19.44;44.98;96389.19;10374424;28;98546;-71
2022/05/27 20:32:37;;;;;;;2.45;1.55;;;;;;;19.21;45.42;96403.56;10374149;28;99320;-70
2022/05/27 20:37:40;;;;;;;2.63;1.30;;;;;;;19.02;45.83;96401.66;10372290;28;97564;-71
2022/05/27 20:42:43;;;;;;;1.92;0.90;;;;;;;18.78;46.77;96414.31;10382385;28;98023;-72
2022/05/27 20:47:48;;;;;;;1.90;0.95;;;;;;;18.54;47.82;96422.72;10374719;28;96969;-73
2022/05/27 20:52:52;;;;;;;2.45;1.52;;;;;;;18.34;48.16;96428.69;10368643;28;98710;-74
2022/05/27 20:57:54;;;;;;;1.65;1.02;;;;;;;18.22;48.48;96428.41;10375250;28;98287;-70
2022/05/27 21:02:58;;;;;;;2.85;1.23;;;;;;;18.11;49.04;96442.94;10362287;28;96896;-71
2022/05/27 21:08:02;;;;;;;1.80;1.10;;;;;;;18.06;49.27;96447.97;10366346;28;98794;-71
2022/05/27 21:13:05;;;;;;;1.85;1.02;;;;;;;17.92;50.11;96443.56;10371044;28;98964;-71
2022/05/27 21:18:09;;;;;;;2.17;1.40;;;;;;;17.79;50.78;96452.16;10375065;28;99028;-71
2022/05/27 21:23:13;;;;;;;1.45;1.17;;;;;;;17.53;51.17;96453.50;10374092;28;96942;-71
2022/05/27 21:28:16;;;;;;;2.83;1.23;;;;;;;17.42;51.16;96445.25;10378338;28;97123;-71
2022/05/27 21:33:20;;;;;;;2.92;1.20;;;;;;;17.29;51.77;96444.09;10371910;28;97913;-72
2022/05/27 21:38:23;;;;;;;1.25;0.98;;;;;;;17.21;52.37;96454.75;10376272;28;97694;-70
2022/05/27 21:43:29;;;;;;;2.95;1.70;;;;;;;17.20;52.97;96453.13;10371426;28;97129;-71
2022/05/27 21:48:34;;;;;;;2.05;1.15;;;;;;;17.05;53.20;96460.25;10367516;28;96819;-72
2022/05/27 21:53:37;;;;;;;1.42;1.08;;;;;;;16.91;53.83;96459.25;10382393;28;97242;-71
2022/05/27 21:58:40;;;;;;;2.05;1.30;;;;;;;16.65;54.25;96460.47;10371662;28;96896;-71
2022/05/27 22:03:44;;;;;;;3.83;2.28;;;;;;;16.52;54.95;96466.38;10382360;28;97154;-70
2022/05/27 22:08:47;;;;;;;;;;;;;;;16.44;53.91;96469.88;10374709;28;97273;-75
2022/05/27 22:13:52;;;;;;;2.60;1.10;;;;;;;16.25;55.45;96463.28;10371366;28;97220;-69
2022/05/27 22:18:56;;;;;;;1.38;0.90;;;;;;;16.17;56.43;96463.38;10387019;28;96742;-70
2022/05/27 22:23:59;;;;;;;2.45;1.10;;;;;;;16.05;56.82;96470.03;10377266;28;96980;-71
2022/05/27 22:29:01;;;;;;;1.95;0.95;;;;;;;15.85;55.98;96465.25;10375527;28;96968;-71
2022/05/27 22:34:06;;;;;;;2.28;1.65;;;;;;;15.62;56.26;96467.88;10381847;28;97698;-71
2022/05/27 22:39:08;;;;;;;3.30;0.90;;;;;;;15.36;56.50;96465.50;10353974;28;97988;-70
2022/05/27 22:44:11;;;;;;;2.85;1.17;;;;;;;15.16;56.79;96464.28;10385817;28;96738;-71
2022/05/27 22:49:15;;;;;;;2.85;1.20;;;;;;;15.02;57.80;96464.00;10387436;28;97811;-71
2022/05/27 22:54:18;;;;;;;1.80;1.13;;;;;;;14.92;57.53;96458.94;10372896;28;97003;-71
2022/05/27 22:59:21;;;;;;;2.45;0.93;;;;;;;14.85;58.48;96451.88;10372319;28;99078;-72
2022/05/27 23:04:25;;;;;;;1.83;1.35;;;;;;;14.79;58.87;96453.38;10355791;28;99424;-71
2022/05/27 23:09:28;;;;;;;1.20;1.03;;;;;;;14.70;59.27;96449.97;10356506;28;97703;-74
2022/05/27 23:19:53;;;;;;;2.00;0.90;;;;;;;14.79;59.70;96445.50;10369758;28;98583;-71
2022/05/27 23:24:56;;;;;;;2.47;1.00;;;;;;;14.61;59.58;96440.47;10364408;28;97949;-72
2022/05/27 23:30:00;;;;;;;1.60;1.02;;;;;;;14.49;60.38;96439.19;10360382;28;97055;-70
2022/05/27 23:35:05;;;;;;;1.73;1.17;;;;;;;14.20;60.55;96432.59;10360734;28;98392;-71
2022/05/27 23:40:10;;;;;;;21.92;14.82;;;;;;;14.11;61.33;96430.97;10361630;28;97118;-69
2022/05/27 23:45:12;;;;;;;3.47;1.33;;;;;;;13.93;61.94;96423.25;10359536;28;100810;-71
2022/05/27 23:50:17;;;;;;;5.80;3.13;;;;;;;13.94;62.06;96428.34;10376430;28;98180;-70
2022/05/27 23:55:20;;;;;;;1.77;1.10;;;;;;;13.87;61.83;96429.16;10379348;28;96902;-74
